PAVD METAR and TAF weather

Enter ICAO airport designator
Station Type Date Time Source
PAVD METAR 2019/02/21 11:23 UTC NOAA

PAVD 211123Z AUTO 00000KT 2SM -SN BR OVC021 M04/M06 A2975 RMK AO2 P0000 FZRANO


Station Type Date Time Source
PAVD Decoded METAR 2019/02/21 11:23 UTC NOAA

Valdez 2, AK, United States (PAVD) 61-08N 146-16W
Feb 21, 2019 - 06:23 AM EST / 2019.02.21 1123 UTC
Wind: Calm:0
Visibility: 2 mile(s):0
Sky conditions: overcast
Weather: light snow; mist
Precipitation last hour: A trace
Temperature: 24 F (-4 C)
Dew Point: 21 F (-6 C)
Relative Humidity: 85%
Pressure (altimeter): 29.75 in. Hg (1007 hPa)
ob: PAVD 211123Z AUTO 00000KT 2SM -SN BR OVC021 M04/M06 A2975 RMK AO2 P0000 FZRANO
cycle: 11

Station Type Date Time Source
PAVD TAF 2019/02/21 12:42 UTC NOAA

TAF PAVD 211140Z 2112/2212 VRB02KT 2SM -SN BR OVC021
FM211600 07011KT P6SM SCT015 SCT035 BKN060
FM211900 07015G30KT P6SM SCT060
FM212200 07020G45KT P6SM SCT060
AMD LTD TO CLD VIS AND WIND


Example: see airport list